Time;durP1;ratioP1;P1;durP2;ratioP2;P2;SDS_P1;SDS_P2;PMS_P1;PMS_P2;Temp;Humidity;BMP_temperature;BMP_pressure;BME280_temperature;BME280_humidity;BME280_pressure;Samples;Min_cycle;Max_cycle;Signal;HPM_P1;HPM_P2
2022/02/18 00:00:26;;;;;;;4.00;1.10;;;;;;;18.91;23.70;96995.69;5074424;28;20109;-84
2022/02/18 00:02:52;;;;;;;7.57;1.70;;;;;;;18.23;24.79;97009.13;5073516;28;20086;-84
2022/02/18 00:05:19;;;;;;;4.63;1.40;;;;;;;19.69;22.89;97003.28;5072876;28;20028;-84
2022/02/18 00:07:45;;;;;;;4.65;1.40;;;;;;;19.45;23.06;96999.81;5072952;28;20046;-84
2022/02/18 00:10:11;;;;;;;10.82;1.85;;;;;;;19.14;23.19;97018.69;5071557;28;20028;-84
2022/02/18 00:12:37;;;;;;;6.82;1.42;;;;;;;19.55;22.54;97014.72;5084928;28;20040;-84
2022/02/18 00:15:05;;;;;;;4.55;1.38;;;;;;;19.29;22.64;97011.63;5070947;28;20055;-83
2022/02/18 00:17:31;;;;;;;5.20;1.27;;;;;;;18.98;23.19;97026.13;5077606;28;20036;-82
2022/02/18 00:19:57;;;;;;;6.35;1.38;;;;;;;20.46;21.18;97006.31;5062325;28;20028;-82
2022/02/18 00:22:24;;;;;;;4.45;1.65;;;;;;;20.96;20.76;97023.34;5080694;28;20114;-83
2022/02/18 00:24:51;;;;;;;4.35;1.48;;;;;;;20.58;21.20;97030.72;5073505;28;20032;-82
2022/02/18 00:27:17;;;;;;;5.80;1.38;;;;;;;21.04;21.01;97040.72;5073830;28;20036;-82
2022/02/18 00:29:43;;;;;;;3.15;1.00;;;;;;;20.34;21.22;97048.81;5074303;28;20033;-82
2022/02/18 00:32:09;;;;;;;5.00;1.50;;;;;;;19.83;21.79;97051.13;5072223;28;20043;-83
2022/02/18 00:34:36;;;;;;;5.63;1.13;;;;;;;20.56;21.02;97058.28;5077219;28;20499;-82
2022/02/18 00:37:03;;;;;;;5.03;0.88;;;;;;;18.79;22.97;97068.59;5081026;28;20032;-83
2022/02/18 00:39:29;;;;;;;4.43;1.08;;;;;;;18.04;23.85;97057.81;5076867;28;20060;-82
2022/02/18 00:41:55;;;;;;;4.45;1.10;;;;;;;17.71;24.27;97067.75;5052120;28;20044;-83
2022/02/18 00:44:21;;;;;;;6.55;1.10;;;;;;;16.44;26.36;97090.38;5084147;28;20048;-83
2022/02/18 00:46:48;;;;;;;4.60;1.15;;;;;;;17.39;24.85;97081.22;5077691;28;20093;-83
2022/02/18 00:49:14;;;;;;;5.43;1.20;;;;;;;17.19;24.68;97096.88;5076333;28;20441;-83
2022/02/18 00:51:40;;;;;;;3.83;1.45;;;;;;;17.67;24.34;97107.88;5077626;28;20039;-82
2022/02/18 00:54:06;;;;;;;6.20;1.20;;;;;;;17.74;23.62;97100.25;5079284;28;20093;-82
2022/02/18 00:56:32;;;;;;;2.55;0.90;;;;;;;16.75;24.90;97117.09;5076992;28;20028;-83
2022/02/18 00:59:02;;;;;;;2.58;0.80;;;;;;;17.20;24.61;97126.97;5069535;28;20048;-83
2022/02/18 01:01:29;;;;;;;6.68;0.93;;;;;;;17.99;22.99;97099.94;5080618;28;20047;-83
2022/02/18 01:03:55;;;;;;;5.25;0.88;;;;;;;17.84;24.02;97115.22;5075336;28;20036;-83
2022/02/18 01:06:21;;;;;;;2.38;0.80;;;;;;;18.05;23.05;97105.81;5072836;28;20036;-81
2022/02/18 01:08:47;;;;;;;4.00;0.90;;;;;;;18.59;21.66;97111.03;5070402;28;20047;-81
2022/02/18 01:11:13;;;;;;;3.70;0.50;;;;;;;18.70;22.22;97110.84;5073116;28;20070;-81
2022/02/18 01:13:41;;;;;;;5.57;0.90;;;;;;;18.82;21.61;97115.81;5056118;28;20139;-80
2022/02/18 01:16:07;;;;;;;2.03;0.70;;;;;;;18.75;21.61;97107.59;5074736;28;20061;-81
2022/02/18 01:18:34;;;;;;;3.67;0.70;;;;;;;20.43;20.37;97101.97;5076444;28;20032;-82
2022/02/18 01:21:01;;;;;;;2.67;0.50;;;;;;;21.66;18.91;97118.41;5070560;28;20047;-82
2022/02/18 01:23:27;;;;;;;2.60;0.60;;;;;;;22.62;18.11;97116.44;5047639;28;20036;-81
2022/02/18 01:25:53;;;;;;;4.78;0.70;;;;;;;21.85;19.12;97122.31;5071609;28;20469;-81
2022/02/18 01:28:19;;;;;;;4.63;1.00;;;;;;;21.70;19.09;97130.31;5075670;28;20028;-82
2022/02/18 01:30:45;;;;;;;2.50;0.82;;;;;;;20.00;21.15;97141.88;5076700;28;20101;-83
2022/02/18 01:33:11;;;;;;;5.90;0.93;;;;;;;19.57;21.53;97151.50;5074945;28;20126;-84
2022/02/18 01:35:37;;;;;;;2.45;0.77;;;;;;;21.31;19.84;97145.28;5072871;28;20032;-81
2022/02/18 01:38:05;;;;;;;6.43;1.38;;;;;;;20.87;19.90;97143.16;5075260;28;20485;-81
2022/02/18 01:40:32;;;;;;;2.65;0.80;;;;;;;18.38;22.51;97141.09;5084081;28;20031;-82
2022/02/18 01:42:59;;;;;;;4.25;0.80;;;;;;;18.63;22.45;97169.34;5073230;28;20041;-81
2022/02/18 01:45:26;;;;;;;6.25;1.10;;;;;;;17.47;23.66;97170.72;5074236;28;20054;-81
2022/02/18 01:47:52;;;;;;;4.20;0.82;;;;;;;17.09;24.19;97162.34;5076326;28;21969;-81
2022/02/18 01:50:20;;;;;;;3.47;1.00;;;;;;;17.93;23.10;97157.13;5076411;28;20029;-81
2022/02/18 01:52:49;;;;;;;7.82;1.10;;;;;;;17.74;23.03;97154.97;5075556;28;20146;-81
2022/02/18 01:55:17;;;;;;;1.88;0.80;;;;;;;18.36;22.35;97168.50;5077107;28;20028;-81
2022/02/18 01:57:54;;;;;;;5.93;1.17;;;;;;;17.76;22.88;97181.13;5073807;28;20070;-80
2022/02/18 02:00:29;;;;;;;3.42;0.88;;;;;;;17.98;22.47;97172.56;5071648;28;20031;-81
2022/02/18 02:02:56;;;;;;;1.77;0.60;;;;;;;18.51;22.37;97179.03;5072440;28;20039;-80
2022/02/18 02:05:23;;;;;;;3.70;0.90;;;;;;;19.02;21.76;97189.00;5066020;28;20439;-81
2022/02/18 02:07:50;;;;;;;4.85;0.90;;;;;;;18.17;21.94;97183.84;5078555;28;20036;-81
2022/02/18 02:10:18;;;;;;;3.42;0.73;;;;;;;18.36;21.54;97194.31;5065671;28;20028;-80
2022/02/18 02:12:50;;;;;;;3.60;0.75;;;;;;;17.14;22.90;97195.19;5070009;28;20393;-81
2022/02/18 02:15:18;;;;;;;2.17;0.82;;;;;;;16.97;23.15;97211.94;5071173;28;20441;-81
2022/02/18 02:17:45;;;;;;;1.75;0.50;;;;;;;15.77;23.82;97193.97;5071153;28;20025;-81
2022/02/18 02:20:12;;;;;;;5.70;0.60;;;;;;;15.65;23.73;97216.53;5067608;28;20038;-82
2022/02/18 02:22:39;;;;;;;4.32;0.50;;;;;;;16.05;22.89;97223.53;5071340;28;20531;-82
2022/02/18 02:25:05;;;;;;;6.50;0.50;;;;;;;16.52;22.35;97211.84;5073491;28;20039;-81
2022/02/18 02:27:32;;;;;;;0.90;0.40;;;;;;;16.17;22.92;97214.00;5070766;28;20040;-81
2022/02/18 02:29:59;;;;;;;2.33;0.47;;;;;;;15.77;23.14;97232.72;5078567;28;20530;-81
2022/02/18 02:32:25;;;;;;;2.22;0.50;;;;;;;16.80;21.83;97244.16;5075705;28;20521;-80
2022/02/18 02:34:52;;;;;;;3.00;0.50;;;;;;;15.96;21.77;97236.22;5074288;28;20474;-81
2022/02/18 02:37:18;;;;;;;2.20;0.70;;;;;;;16.25;22.71;97227.41;5073654;28;20486;-80
2022/02/18 02:39:44;;;;;;;1.13;0.50;;;;;;;16.58;22.05;97243.50;5086618;28;20028;-81
2022/02/18 02:42:11;;;;;;;3.67;0.40;;;;;;;16.48;22.58;97244.28;5083588;28;20024;-81
2022/02/18 02:44:37;;;;;;;1.50;0.50;;;;;;;17.27;21.60;97237.88;5083945;28;20055;-81
2022/02/18 02:47:04;;;;;;;1.23;0.40;;;;;;;17.74;21.22;97233.50;5060938;28;20515;-80
2022/02/18 02:49:31;;;;;;;2.35;0.63;;;;;;;19.07;19.26;97226.66;5086082;28;20036;-80
2022/02/18 02:51:58;;;;;;;3.85;0.52;;;;;;;18.04;20.52;97237.56;5070996;28;20040;-81
2022/02/18 02:54:25;;;;;;;2.25;0.40;;;;;;;17.60;21.05;97236.41;5079202;28;20043;-82
2022/02/18 02:56:56;;;;;;;0.47;0.20;;;;;;;19.37;19.46;97248.88;5073441;28;20116;-81
2022/02/18 02:59:23;;;;;;;2.30;0.32;;;;;;;20.49;18.37;97251.59;5075870;28;20029;-81
2022/02/18 03:01:50;;;;;;;2.10;0.30;;;;;;;19.94;18.51;97259.84;5078624;28;20044;-81
2022/02/18 03:04:16;;;;;;;2.03;0.43;;;;;;;19.49;19.28;97255.84;5074314;28;20116;-81
2022/02/18 03:06:42;;;;;;;1.70;0.50;;;;;;;18.47;20.42;97260.88;5079987;28;20040;-81
2022/02/18 03:09:11;;;;;;;5.38;0.70;;;;;;;18.99;19.55;97266.94;5059723;28;20032;-81
2022/02/18 03:11:37;;;;;;;5.07;0.65;;;;;;;19.97;18.68;97270.13;5084506;28;20044;-81
2022/02/18 03:14:04;;;;;;;2.35;0.60;;;;;;;20.07;18.33;97268.38;5066300;28;20051;-82
2022/02/18 03:16:31;;;;;;;1.42;0.47;;;;;;;19.96;18.90;97283.28;5088213;28;20502;-81
2022/02/18 03:18:57;;;;;;;3.65;0.80;;;;;;;19.55;18.79;97282.81;5077120;28;20043;-81
2022/02/18 03:21:23;;;;;;;2.05;0.52;;;;;;;19.05;19.89;97276.38;5073558;28;20021;-81
2022/02/18 03:23:49;;;;;;;3.35;0.70;;;;;;;19.98;18.86;97294.78;5056770;28;20056;-81
2022/02/18 03:26:16;;;;;;;1.60;0.50;;;;;;;20.61;18.35;97290.00;5060969;28;20025;-81
2022/02/18 03:28:43;;;;;;;4.93;0.68;;;;;;;20.45;18.25;97289.94;5072726;28;20077;-81
2022/02/18 03:31:09;;;;;;;1.65;0.60;;;;;;;19.07;19.98;97296.22;5075328;28;20028;-81
2022/02/18 03:33:42;;;;;;;2.30;1.10;;;;;;;18.76;20.32;97301.03;5076446;28;20111;-81
2022/02/18 03:36:09;;;;;;;2.28;0.60;;;;;;;18.89;20.47;97298.47;5083806;28;20048;-81
2022/02/18 03:38:35;;;;;;;3.15;0.60;;;;;;;20.47;18.99;97303.44;5079748;28;20409;-81
2022/02/18 03:41:02;;;;;;;4.03;0.60;;;;;;;21.62;17.54;97301.31;5076113;28;20089;-81
2022/02/18 03:43:28;;;;;;;6.00;0.68;;;;;;;22.45;16.95;97302.38;5078382;28;20044;-82
2022/02/18 03:45:55;;;;;;;2.38;0.47;;;;;;;22.34;17.01;97301.88;5071789;28;20048;-81
2022/02/18 03:48:21;;;;;;;2.63;0.80;;;;;;;22.68;16.83;97310.56;5057931;28;20455;-81
2022/02/18 03:50:47;;;;;;;2.83;0.88;;;;;;;21.87;17.71;97302.31;5079354;28;20066;-81
2022/02/18 03:53:14;;;;;;;4.15;0.70;;;;;;;21.29;18.25;97318.06;5074391;28;20059;-81
2022/02/18 03:55:40;;;;;;;4.68;1.08;;;;;;;22.24;17.52;97314.16;5075514;28;20054;-81
2022/02/18 03:58:07;;;;;;;3.17;1.00;;;;;;;22.03;17.81;97315.50;5082948;28;20037;-81
2022/02/18 04:00:33;;;;;;;1.63;0.80;;;;;;;21.52;18.19;97321.94;5082152;28;20028;-80
2022/02/18 04:02:59;;;;;;;1.02;0.60;;;;;;;21.08;18.75;97335.28;5049066;28;20509;-80
2022/02/18 04:05:25;;;;;;;4.70;0.80;;;;;;;21.79;18.02;97337.22;5069468;28;20669;-81
2022/02/18 04:07:52;;;;;;;1.02;0.47;;;;;;;21.77;18.10;97330.50;5070449;28;20067;-81
2022/02/18 04:10:18;;;;;;;4.97;1.05;;;;;;;22.35;17.53;97329.41;5052675;28;20393;-81
2022/02/18 04:12:44;;;;;;;2.75;0.57;;;;;;;21.63;17.83;97334.44;5083582;28;20035;-81
2022/02/18 04:15:10;;;;;;;3.65;0.57;;;;;;;21.22;18.29;97339.75;5071218;28;20028;-81
2022/02/18 04:17:37;;;;;;;3.15;0.88;;;;;;;20.72;18.54;97337.22;5091319;28;20088;-81
2022/02/18 04:20:03;;;;;;;1.50;0.80;;;;;;;18.66;20.60;97349.22;5070451;28;20029;-81
2022/02/18 04:22:29;;;;;;;3.40;0.80;;;;;;;19.89;19.35;97341.91;5068424;28;20397;-81
2022/02/18 04:24:55;;;;;;;2.55;0.60;;;;;;;19.22;20.17;97336.56;5073883;28;20047;-80
2022/02/18 04:27:21;;;;;;;2.92;0.90;;;;;;;20.48;19.21;97356.00;5081068;28;20535;-81
2022/02/18 04:29:48;;;;;;;4.28;0.60;;;;;;;19.65;19.56;97347.88;5051709;28;20043;-81
2022/02/18 04:32:14;;;;;;;1.70;0.63;;;;;;;21.70;17.68;97353.81;5067479;28;20513;-81
2022/02/18 04:34:40;;;;;;;6.68;0.90;;;;;;;20.73;18.23;97361.09;5069386;28;20377;-81
2022/02/18 04:37:06;;;;;;;1.33;0.90;;;;;;;20.87;18.50;97374.75;5076388;28;20041;-81
2022/02/18 04:39:33;;;;;;;4.45;1.88;;;;;;;20.47;18.69;97364.78;5068667;28;20025;-81
2022/02/18 04:41:59;;;;;;;7.43;2.90;;;;;;;21.28;17.69;97374.34;5077522;28;20059;-81
2022/02/18 04:44:25;;;;;;;5.82;2.13;;;;;;;21.91;17.43;97372.09;5073178;28;20105;-81
2022/02/18 04:46:51;;;;;;;5.50;1.60;;;;;;;21.75;17.61;97377.66;5074555;28;20029;-81
2022/02/18 04:49:17;;;;;;;11.88;3.13;;;;;;;21.69;17.40;97374.56;5070919;28;20028;-81
2022/02/18 04:51:43;;;;;;;5.63;3.03;;;;;;;21.78;17.22;97377.56;5074562;28;20393;-80
2022/02/18 04:54:09;;;;;;;5.43;1.67;;;;;;;21.35;17.81;97388.91;5059380;28;20425;-81
2022/02/18 04:56:35;;;;;;;5.53;1.23;;;;;;;21.19;18.02;97388.09;5068248;28;20037;-81
2022/02/18 04:59:02;;;;;;;2.95;1.08;;;;;;;21.47;17.69;97386.69;5079899;28;20020;-81
2022/02/18 05:01:28;;;;;;;2.75;1.20;;;;;;;21.76;17.49;97391.19;5075245;28;20020;-81
2022/02/18 05:03:54;;;;;;;2.92;0.90;;;;;;;22.04;17.08;97398.13;5069589;28;20024;-81
2022/02/18 05:06:20;;;;;;;3.75;1.15;;;;;;;22.63;16.59;97404.22;5057920;28;20021;-81
2022/02/18 05:08:46;;;;;;;4.25;1.38;;;;;;;22.08;16.96;97410.00;5080670;28;20037;-81
2022/02/18 05:11:12;;;;;;;2.22;1.13;;;;;;;22.53;16.48;97393.25;5063245;28;20032;-81
2022/02/18 05:13:39;;;;;;;4.75;2.05;;;;;;;22.30;16.74;97391.47;5080221;28;20047;-81
2022/02/18 05:16:05;;;;;;;6.47;1.00;;;;;;;22.23;16.74;97405.63;5053468;28;20060;-81
2022/02/18 05:18:32;;;;;;;2.30;0.95;;;;;;;22.52;16.39;97400.88;5068581;28;20029;-81
2022/02/18 05:20:58;;;;;;;5.10;1.45;;;;;;;20.35;18.17;97412.81;5061674;28;20079;-81
2022/02/18 05:23:24;;;;;;;2.75;1.00;;;;;;;20.93;17.94;97408.53;5067282;28;20403;-81
2022/02/18 05:25:50;;;;;;;3.42;1.15;;;;;;;21.47;17.41;97409.03;5067901;28;20033;-81
2022/02/18 05:28:16;;;;;;;2.38;0.85;;;;;;;20.74;17.96;97401.72;5073456;28;20064;-81
2022/02/18 05:30:43;;;;;;;5.28;1.27;;;;;;;21.69;17.15;97410.09;5075933;28;20028;-81
2022/02/18 05:33:11;;;;;;;7.22;1.33;;;;;;;22.47;16.42;97407.03;5060988;28;20032;-81
2022/02/18 05:35:38;;;;;;;1.85;0.68;;;;;;;22.35;16.35;97410.53;5066161;28;20052;-81
2022/02/18 05:38:04;;;;;;;5.93;1.67;;;;;;;21.74;16.51;97410.38;5075710;28;20044;-81
2022/02/18 05:40:30;;;;;;;2.20;0.75;;;;;;;21.04;17.28;97420.25;5052150;28;20128;-81
2022/02/18 05:42:56;;;;;;;5.60;1.08;;;;;;;20.47;18.10;97420.53;5079640;28;20033;-81
2022/02/18 05:45:22;;;;;;;5.63;1.48;;;;;;;21.50;17.14;97413.72;5071967;28;20029;-81
2022/02/18 05:47:48;;;;;;;2.67;0.85;;;;;;;21.13;17.44;97417.72;5076804;28;20477;-81
2022/02/18 05:50:14;;;;;;;1.77;0.80;;;;;;;20.72;18.06;97417.31;5075113;28;20028;-82
2022/02/18 05:52:42;;;;;;;3.70;0.60;;;;;;;21.70;17.00;97417.28;5073049;28;20046;-81
2022/02/18 05:55:08;;;;;;;4.30;0.73;;;;;;;21.37;17.34;97421.22;5077536;28;20028;-80
2022/02/18 05:57:35;;;;;;;3.22;0.82;;;;;;;21.54;17.07;97428.41;5070692;28;20024;-80
2022/02/18 06:00:03;;;;;;;1.65;0.73;;;;;;;20.91;17.72;97433.28;5074074;28;20094;-81
2022/02/18 06:02:29;;;;;;;2.53;0.50;;;;;;;21.22;17.48;97431.88;5055853;28;20031;-80
2022/02/18 06:04:55;;;;;;;2.70;0.73;;;;;;;20.87;17.79;97432.56;5065613;28;20496;-81
2022/02/18 06:07:21;;;;;;;3.83;0.90;;;;;;;20.75;17.83;97442.34;5069939;28;20497;-80
2022/02/18 06:09:47;;;;;;;2.25;0.63;;;;;;;20.77;17.99;97453.84;5073697;28;20033;-80
2022/02/18 06:12:13;;;;;;;3.45;1.05;;;;;;;21.25;17.62;97454.16;5075532;28;20374;-80
2022/02/18 06:14:39;;;;;;;2.88;0.85;;;;;;;20.59;18.10;97456.19;5061847;28;20036;-79
2022/02/18 06:17:08;;;;;;;5.30;1.33;;;;;;;20.75;17.85;97456.28;5078677;28;20056;-79
2022/02/18 06:19:35;;;;;;;5.82;0.88;;;;;;;20.95;17.91;97471.06;5058005;28;20067;-79
2022/02/18 06:22:01;;;;;;;1.45;0.75;;;;;;;20.90;18.05;97485.53;5076056;28;20098;-80
2022/02/18 06:24:27;;;;;;;2.15;0.93;;;;;;;20.40;18.40;97468.06;5072629;28;20033;-79
2022/02/18 06:26:53;;;;;;;3.38;0.90;;;;;;;20.34;18.46;97478.13;5071369;28;20037;-79
2022/02/18 06:29:19;;;;;;;3.00;0.70;;;;;;;20.78;17.95;97488.94;5073455;28;20032;-79
2022/02/18 06:31:45;;;;;;;4.13;0.95;;;;;;;20.64;18.08;97489.97;5076194;28;20090;-79
2022/02/18 06:34:11;;;;;;;1.23;0.80;;;;;;;21.21;17.72;97486.91;5074586;28;20039;-80
2022/02/18 06:36:37;;;;;;;3.97;0.93;;;;;;;20.92;17.80;97487.88;5080811;28;20028;-80
2022/02/18 06:39:03;;;;;;;5.32;0.80;;;;;;;21.15;17.64;97494.22;5074601;28;20576;-80
2022/02/18 06:41:29;;;;;;;2.75;1.38;;;;;;;20.70;17.90;97490.25;5058451;28;20029;-80
2022/02/18 06:43:56;;;;;;;2.70;0.95;;;;;;;20.08;18.35;97499.22;5078813;28;20060;-80
2022/02/18 06:46:22;;;;;;;2.88;1.10;;;;;;;19.42;19.27;97496.16;5073108;28;20086;-81
2022/02/18 06:48:49;;;;;;;2.90;0.88;;;;;;;20.60;17.96;97488.47;5065850;28;20033;-80
2022/02/18 06:51:15;;;;;;;2.20;0.70;;;;;;;20.63;17.85;97488.38;5069819;28;20032;-80
2022/02/18 06:53:41;;;;;;;4.20;0.80;;;;;;;19.51;18.98;97501.22;5075197;28;20093;-80
2022/02/18 06:56:08;;;;;;;5.90;1.00;;;;;;;19.59;19.10;97502.72;5071901;28;20064;-79
2022/02/18 06:58:34;;;;;;;5.45;0.98;;;;;;;19.22;19.19;97504.34;5071966;28;20183;-81
2022/02/18 07:01:01;;;;;;;2.03;0.70;;;;;;;20.84;17.65;97498.38;5072202;28;20949;-80
2022/02/18 07:03:27;;;;;;;4.07;0.95;;;;;;;20.33;18.05;97508.00;5072306;28;20044;-80
2022/02/18 07:05:55;;;;;;;2.55;0.80;;;;;;;21.13;17.63;97501.47;5082044;28;20039;-80
2022/02/18 07:08:21;;;;;;;3.42;1.38;;;;;;;21.71;17.08;97508.25;5077834;28;20056;-80
2022/02/18 07:10:47;;;;;;;3.00;0.90;;;;;;;21.43;17.13;97509.63;5049912;28;20405;-81
2022/02/18 07:13:13;;;;;;;3.53;1.15;;;;;;;21.40;16.99;97507.69;5071777;28;20388;-81
2022/02/18 07:15:40;;;;;;;2.80;0.80;;;;;;;21.08;17.77;97505.53;5075016;28;20025;-80
2022/02/18 07:18:06;;;;;;;2.00;0.82;;;;;;;20.30;18.41;97506.09;5070912;28;20480;-80
2022/02/18 07:20:32;;;;;;;8.20;1.10;;;;;;;18.88;19.60;97502.72;5074266;28;20032;-80
2022/02/18 07:22:59;;;;;;;3.88;1.63;;;;;;;19.25;19.23;97514.59;5072881;28;20033;-80
2022/02/18 07:25:25;;;;;;;4.95;1.00;;;;;;;21.09;17.90;97506.31;5052083;28;20024;-81
2022/02/18 07:27:51;;;;;;;3.55;1.15;;;;;;;20.81;17.96;97518.78;5071199;28;20040;-80
2022/02/18 07:30:17;;;;;;;2.67;0.98;;;;;;;21.01;17.78;97502.03;5069494;28;20766;-80
2022/02/18 07:32:43;;;;;;;4.97;0.95;;;;;;;19.21;19.41;97491.59;5067157;28;20043;-80
2022/02/18 07:35:10;;;;;;;4.15;1.13;;;;;;;20.29;18.57;97503.72;5073627;28;20054;-80
2022/02/18 07:37:36;;;;;;;4.80;0.90;;;;;;;20.05;18.92;97502.06;5075306;28;20027;-81
2022/02/18 07:40:03;;;;;;;2.70;0.75;;;;;;;20.83;18.50;97515.53;5072477;28;20033;-81
2022/02/18 07:42:29;;;;;;;5.72;2.13;;;;;;;21.16;17.71;97520.16;5075837;28;20161;-79
2022/02/18 07:44:55;;;;;;;2.35;0.85;;;;;;;19.88;18.96;97531.78;5055212;28;20041;-79
2022/02/18 07:47:22;;;;;;;3.53;1.30;;;;;;;20.18;18.32;97523.38;5054562;28;20465;-79
2022/02/18 07:49:48;;;;;;;4.32;1.27;;;;;;;20.31;18.61;97537.53;5068169;28;20052;-79
2022/02/18 07:52:15;;;;;;;5.65;1.52;;;;;;;20.18;18.59;97523.38;5069434;28;20050;-80
2022/02/18 07:54:42;;;;;;;4.45;0.90;;;;;;;19.32;19.28;97522.13;5074496;28;20123;-81
2022/02/18 07:57:08;;;;;;;2.55;1.15;;;;;;;19.32;19.59;97531.22;5072560;28;20036;-80
2022/02/18 07:59:34;;;;;;;4.97;1.08;;;;;;;20.11;18.95;97531.84;5071096;28;20052;-80
2022/02/18 08:02:00;;;;;;;5.63;1.17;;;;;;;18.73;20.50;97535.44;5065584;28;20078;-79
2022/02/18 08:04:27;;;;;;;3.58;1.00;;;;;;;19.51;19.48;97548.56;5062866;28;20082;-80
2022/02/18 08:06:53;;;;;;;5.32;1.10;;;;;;;19.87;19.02;97535.75;5072216;28;20398;-79
2022/02/18 08:09:19;;;;;;;6.60;1.00;;;;;;;20.17;18.60;97537.69;5065373;28;20046;-80
2022/02/18 08:11:45;;;;;;;4.30;0.90;;;;;;;20.58;18.18;97535.50;5081245;28;20089;-79
2022/02/18 08:14:11;;;;;;;3.20;1.45;;;;;;;19.80;18.74;97535.84;5080274;28;20036;-79
2022/02/18 08:16:37;;;;;;;3.33;0.80;;;;;;;19.96;19.62;97547.16;5067160;28;20035;-80
2022/02/18 08:19:05;;;;;;;2.35;0.60;;;;;;;20.63;18.43;97544.16;5075271;28;20044;-79
2022/02/18 08:21:32;;;;;;;2.70;0.57;;;;;;;20.95;18.06;97554.78;5052182;28;20559;-80
2022/02/18 08:23:58;;;;;;;5.45;0.85;;;;;;;20.89;17.64;97541.72;5076182;28;20028;-80
2022/02/18 08:26:24;;;;;;;3.97;1.08;;;;;;;21.67;17.10;97541.84;5075318;28;20409;-80
2022/02/18 08:28:50;;;;;;;4.32;1.13;;;;;;;20.77;17.87;97548.72;5063555;28;20037;-80
2022/02/18 08:31:18;;;;;;;3.03;0.65;;;;;;;19.75;19.61;97548.25;5072425;28;20051;-80
2022/02/18 08:33:44;;;;;;;6.88;0.75;;;;;;;19.80;18.62;97547.00;5069905;28;20036;-81
2022/02/18 08:36:11;;;;;;;6.15;1.60;;;;;;;19.59;18.66;97545.28;5070960;28;20040;-79
2022/02/18 08:38:37;;;;;;;2.75;0.80;;;;;;;20.33;18.25;97535.09;5065456;28;20032;-79
2022/02/18 08:41:04;;;;;;;2.05;0.60;;;;;;;20.92;17.54;97557.63;5047447;28;20039;-79
2022/02/18 08:43:30;;;;;;;4.55;0.75;;;;;;;19.09;19.95;97547.03;5069509;28;20054;-79
2022/02/18 08:45:56;;;;;;;5.55;0.95;;;;;;;19.59;18.88;97548.06;5051206;28;20051;-79
2022/02/18 08:48:22;;;;;;;3.58;1.20;;;;;;;19.38;19.06;97544.72;5067111;28;20035;-79
2022/02/18 08:50:48;;;;;;;2.38;0.73;;;;;;;19.56;18.74;97546.09;5067275;28;20443;-79
2022/02/18 08:53:14;;;;;;;3.33;0.75;;;;;;;19.70;18.67;97553.47;5071658;28;20036;-79
2022/02/18 08:55:40;;;;;;;4.32;0.90;;;;;;;18.72;19.32;97550.53;5067716;28;20086;-79
2022/02/18 08:58:06;;;;;;;7.68;2.13;;;;;;;18.92;18.37;97548.78;5069039;28;20077;-79
2022/02/18 09:00:33;;;;;;;3.60;1.13;;;;;;;18.20;19.47;97537.84;5066816;28;20443;-79
2022/02/18 09:02:59;;;;;;;7.00;1.40;;;;;;;18.40;20.18;97563.88;5067683;28;20042;-80
2022/02/18 09:05:25;;;;;;;4.10;0.73;;;;;;;17.63;20.42;97577.03;5053018;28;20036;-79
2022/02/18 09:07:53;;;;;;;3.15;0.80;;;;;;;18.48;20.48;97577.34;5064630;28;20052;-79
2022/02/18 09:10:19;;;;;;;3.13;0.77;;;;;;;18.47;20.27;97574.97;5068421;28;20476;-79
2022/02/18 09:12:45;;;;;;;3.13;0.95;;;;;;;18.65;20.17;97566.50;5068525;28;20040;-79
2022/02/18 09:15:13;;;;;;;2.83;1.02;;;;;;;18.53;19.90;97560.22;5068983;28;20444;-79
2022/02/18 09:17:40;;;;;;;8.20;1.10;;;;;;;19.29;19.12;97570.25;5066798;28;20028;-80
2022/02/18 09:20:07;;;;;;;4.47;1.13;;;;;;;18.28;19.35;97544.91;5067208;28;20064;-81
2022/02/18 09:22:34;;;;;;;3.25;0.70;;;;;;;18.92;19.06;97551.56;5066011;28;20025;-80
2022/02/18 09:25:00;;;;;;;4.70;0.98;;;;;;;19.83;18.46;97552.53;5050992;28;20033;-81
2022/02/18 09:27:26;;;;;;;4.20;0.93;;;;;;;19.98;17.88;97550.31;5065817;28;20032;-80
2022/02/18 09:29:52;;;;;;;5.22;0.90;;;;;;;19.54;18.36;97561.63;5063310;28;20045;-79
2022/02/18 09:32:19;;;;;;;3.53;0.80;;;;;;;19.09;19.18;97558.16;5069391;28;20101;-79
2022/02/18 09:34:45;;;;;;;7.40;1.05;;;;;;;19.88;18.61;97554.81;5063534;28;20048;-78
2022/02/18 09:37:16;;;;;;;4.18;0.70;;;;;;;19.86;18.48;97560.03;5062891;28;20035;-79
2022/02/18 09:39:43;;;;;;;1.52;0.70;;;;;;;21.83;17.36;97569.06;5064447;28;20042;-79
2022/02/18 09:42:13;;;;;;;2.33;0.80;;;;;;;22.11;16.28;97554.50;5075372;28;20043;-79
2022/02/18 09:44:42;;;;;;;5.67;0.90;;;;;;;21.11;17.10;97534.59;5067742;28;20130;-79
2022/02/18 09:47:12;;;;;;;1.98;0.73;;;;;;;21.07;17.49;97575.75;5065555;28;20286;-79
2022/02/18 09:49:39;;;;;;;4.97;1.00;;;;;;;21.63;16.89;97571.09;5066779;28;20481;-79
2022/02/18 09:52:07;;;;;;;4.25;0.90;;;;;;;20.56;17.63;97566.59;5069124;28;20029;-79
2022/02/18 09:54:33;;;;;;;3.33;0.63;;;;;;;20.66;17.86;97564.84;5068692;28;20532;-80
2022/02/18 09:57:00;;;;;;;3.03;0.80;;;;;;;20.53;18.02;97589.78;5067865;28;20032;-79
2022/02/18 09:59:28;;;;;;;4.95;0.80;;;;;;;20.04;18.39;97576.53;5065953;28;20032;-79
2022/02/18 10:01:54;;;;;;;3.10;0.73;;;;;;;21.03;17.54;97578.56;5068542;28;20055;-79
2022/02/18 10:04:21;;;;;;;3.88;0.90;;;;;;;18.83;19.31;97589.38;5064571;28;20045;-79
2022/02/18 10:06:47;;;;;;;4.55;1.00;;;;;;;18.46;20.50;97576.19;5064947;28;20036;-79
2022/02/18 10:09:13;;;;;;;3.15;0.82;;;;;;;19.52;19.29;97581.56;5067746;28;20119;-79
2022/02/18 10:11:56;;;;;;;2.63;0.85;;;;;;;19.79;19.46;97578.84;5067525;28;20489;-79
2022/02/18 10:14:22;;;;;;;4.05;1.02;;;;;;;20.67;18.50;97583.19;5068476;28;20044;-80
2022/02/18 10:16:49;;;;;;;7.03;1.40;;;;;;;20.20;18.80;97567.53;5062370;28;20051;-80
2022/02/18 10:19:15;;;;;;;4.40;0.70;;;;;;;21.10;17.88;97578.47;5061256;28;20486;-80
2022/02/18 10:21:42;;;;;;;3.45;0.85;;;;;;;20.49;18.17;97571.53;5061243;28;20551;-80
2022/02/18 10:24:14;;;;;;;3.72;0.75;;;;;;;19.71;18.89;97580.94;5063134;28;20493;-79
2022/02/18 10:26:49;;;;;;;4.25;0.70;;;;;;;19.63;19.28;97573.06;5062908;28;20037;-79
2022/02/18 10:29:23;;;;;;;3.17;1.40;;;;;;;19.76;18.53;97586.03;5064913;28;20032;-79
2022/02/18 10:32:11;;;;;;;5.97;1.20;;;;;;;19.52;19.13;97583.53;5065738;28;20039;-79
2022/02/18 10:35:01;;;;;;;3.30;1.20;;;;;;;20.00;18.83;97565.41;5064479;28;20033;-79
2022/02/18 10:37:30;;;;;;;2.95;0.70;;;;;;;21.06;18.09;97568.56;5064501;28;20519;-80
2022/02/18 10:40:13;;;;;;;3.65;0.88;;;;;;;21.70;17.43;97570.94;5064827;28;20037;-80
2022/02/18 10:42:41;;;;;;;1.65;0.65;;;;;;;21.22;17.55;97560.31;5076376;28;20028;-80
2022/02/18 10:45:13;;;;;;;2.97;0.85;;;;;;;20.76;18.04;97571.47;5072846;28;20538;-81
2022/02/18 10:47:40;;;;;;;2.15;0.65;;;;;;;20.49;18.29;97574.31;5069278;28;20322;-80
2022/02/18 10:50:21;;;;;;;3.53;0.98;;;;;;;20.42;18.07;97575.19;5065262;28;20045;-79
2022/02/18 10:53:09;;;;;;;3.45;0.82;;;;;;;21.19;17.89;97573.09;5071053;28;20431;-78
2022/02/18 10:55:52;;;;;;;2.50;0.85;;;;;;;20.12;18.95;97566.06;5075333;28;20135;-80
2022/02/18 10:58:41;;;;;;;5.57;0.73;;;;;;;19.60;19.49;97565.56;5064229;28;20089;-80
2022/02/18 11:01:16;;;;;;;5.82;0.75;;;;;;;19.58;18.86;97559.63;5072487;28;20033;-80
2022/02/18 11:03:47;;;;;;;2.85;1.30;;;;;;;21.47;17.69;97526.34;5078385;28;20036;-79
2022/02/18 11:06:25;;;;;;;4.82;0.90;;;;;;;21.02;18.30;97537.94;5051445;28;20088;-79
2022/02/18 11:08:59;;;;;;;3.47;0.90;;;;;;;21.61;17.69;97548.38;5072363;28;20386;-81
2022/02/18 11:11:36;;;;;;;2.90;0.77;;;;;;;20.23;18.35;97539.66;5072309;28;20033;-81
2022/02/18 11:14:05;;;;;;;4.10;0.80;;;;;;;21.29;17.73;97535.84;5073356;28;20075;-80
2022/02/18 11:16:32;;;;;;;2.75;0.90;;;;;;;22.14;16.38;97536.09;5070868;28;20024;-80
2022/02/18 11:18:59;;;;;;;2.03;0.63;;;;;;;21.95;16.28;97540.50;5066582;28;20075;-80
2022/02/18 11:21:27;;;;;;;9.70;0.85;;;;;;;21.24;17.60;97541.91;5070507;28;20098;-80
2022/02/18 11:23:54;;;;;;;1.65;0.80;;;;;;;21.18;16.91;97528.88;5069433;28;20036;-79
2022/02/18 11:26:22;;;;;;;2.08;0.93;;;;;;;22.66;16.44;97523.63;5071881;28;20048;-80
2022/02/18 11:28:50;;;;;;;2.85;0.80;;;;;;;22.64;15.89;97517.69;5068657;28;20041;-79
2022/02/18 11:31:50;;;;;;;4.15;0.77;;;;;;;22.27;16.50;97537.75;5069929;28;20020;-81
2022/02/18 11:34:40;;;;;;;2.78;0.70;;;;;;;21.77;17.10;97548.44;5054538;28;20471;-80